sensor_id;sensor_type;location;lat;lon;timestamp;P1;durP1;ratioP1;P2;durP2;ratioP2
32427;SDS011;18882;50.952;4.366;2022-08-30T00:00:20;11.27;;;3.88;;
32427;SDS011;18882;50.952;4.366;2022-08-30T00:03:06;8.25;;;3.75;;
32427;SDS011;18882;50.952;4.366;2022-08-30T00:05:33;10.93;;;4.32;;
32427;SDS011;18882;50.952;4.366;2022-08-30T00:07:59;12.45;;;4.07;;
32427;SDS011;18882;50.952;4.366;2022-08-30T00:10:26;9.23;;;3.90;;
32427;SDS011;18882;50.952;4.366;2022-08-30T00:12:53;9.30;;;4.20;;
32427;SDS011;18882;50.952;4.366;2022-08-30T00:15:20;9.82;;;4.18;;
32427;SDS011;18882;50.952;4.366;2022-08-30T00:17:46;7.10;;;3.53;;
32427;SDS011;18882;50.952;4.366;2022-08-30T00:20:14;8.02;;;3.92;;
32427;SDS011;18882;50.952;4.366;2022-08-30T00:22:43;10.20;;;3.92;;
32427;SDS011;18882;50.952;4.366;2022-08-30T00:25:09;9.48;;;4.70;;
32427;SDS011;18882;50.952;4.366;2022-08-30T00:27:36;8.25;;;4.60;;
32427;SDS011;18882;50.952;4.366;2022-08-30T00:30:03;6.03;;;3.92;;
32427;SDS011;18882;50.952;4.366;2022-08-30T00:32:29;9.18;;;4.13;;
32427;SDS011;18882;50.952;4.366;2022-08-30T00:34:55;16.98;;;5.28;;
32427;SDS011;18882;50.952;4.366;2022-08-30T00:37:20;11.30;;;4.40;;
32427;SDS011;18882;50.952;4.366;2022-08-30T00:39:47;12.60;;;4.25;;
32427;SDS011;18882;50.952;4.366;2022-08-30T00:42:13;12.15;;;4.03;;
32427;SDS011;18882;50.952;4.366;2022-08-30T00:44:40;8.20;;;4.40;;
32427;SDS011;18882;50.952;4.366;2022-08-30T00:47:07;16.15;;;4.53;;
32427;SDS011;18882;50.952;4.366;2022-08-30T00:49:33;10.75;;;3.97;;
32427;SDS011;18882;50.952;4.366;2022-08-30T00:52:00;11.13;;;4.47;;
32427;SDS011;18882;50.952;4.366;2022-08-30T00:54:28;10.20;;;4.82;;
32427;SDS011;18882;50.952;4.366;2022-08-30T00:56:55;10.52;;;4.30;;
32427;SDS011;18882;50.952;4.366;2022-08-30T00:59:22;12.55;;;4.28;;
32427;SDS011;18882;50.952;4.366;2022-08-30T01:01:48;9.07;;;4.90;;
32427;SDS011;18882;50.952;4.366;2022-08-30T01:04:15;8.80;;;4.95;;
32427;SDS011;18882;50.952;4.366;2022-08-30T01:06:44;12.45;;;4.93;;
32427;SDS011;18882;50.952;4.366;2022-08-30T01:09:10;8.77;;;5.07;;
32427;SDS011;18882;50.952;4.366;2022-08-30T01:11:36;10.68;;;4.65;;
32427;SDS011;18882;50.952;4.366;2022-08-30T01:14:06;15.85;;;4.90;;
32427;SDS011;18882;50.952;4.366;2022-08-30T01:16:33;8.93;;;4.35;;
32427;SDS011;18882;50.952;4.366;2022-08-30T01:19:00;7.97;;;4.35;;
32427;SDS011;18882;50.952;4.366;2022-08-30T01:21:28;11.32;;;4.28;;
32427;SDS011;18882;50.952;4.366;2022-08-30T01:24:03;10.07;;;4.63;;
32427;SDS011;18882;50.952;4.366;2022-08-30T01:26:31;13.40;;;4.72;;
32427;SDS011;18882;50.952;4.366;2022-08-30T01:28:59;11.40;;;5.30;;
32427;SDS011;18882;50.952;4.366;2022-08-30T01:31:28;9.25;;;5.20;;
32427;SDS011;18882;50.952;4.366;2022-08-30T01:33:53;8.85;;;4.32;;
32427;SDS011;18882;50.952;4.366;2022-08-30T01:36:19;10.73;;;5.10;;
32427;SDS011;18882;50.952;4.366;2022-08-30T01:38:47;14.23;;;4.80;;
32427;SDS011;18882;50.952;4.366;2022-08-30T01:41:16;14.02;;;4.85;;
32427;SDS011;18882;50.952;4.366;2022-08-30T01:43:51;11.98;;;4.88;;
32427;SDS011;18882;50.952;4.366;2022-08-30T01:46:19;8.52;;;4.88;;
32427;SDS011;18882;50.952;4.366;2022-08-30T01:48:48;8.10;;;5.18;;
32427;SDS011;18882;50.952;4.366;2022-08-30T01:51:15;8.70;;;5.45;;
32427;SDS011;18882;50.952;4.366;2022-08-30T01:53:42;10.35;;;4.85;;
32427;SDS011;18882;50.952;4.366;2022-08-30T01:56:09;8.57;;;4.53;;
32427;SDS011;18882;50.952;4.366;2022-08-30T01:58:36;10.20;;;5.30;;
32427;SDS011;18882;50.952;4.366;2022-08-30T02:01:04;13.43;;;5.55;;
32427;SDS011;18882;50.952;4.366;2022-08-30T02:03:32;9.60;;;5.40;;
32427;SDS011;18882;50.952;4.366;2022-08-30T02:06:03;6.93;;;4.43;;
32427;SDS011;18882;50.952;4.366;2022-08-30T02:08:30;7.65;;;5.38;;
32427;SDS011;18882;50.952;4.366;2022-08-30T02:10:56;15.70;;;5.13;;
32427;SDS011;18882;50.952;4.366;2022-08-30T02:13:24;9.02;;;5.00;;
32427;SDS011;18882;50.952;4.366;2022-08-30T02:15:53;7.75;;;4.65;;
32427;SDS011;18882;50.952;4.366;2022-08-30T02:18:19;9.98;;;4.53;;
32427;SDS011;18882;50.952;4.366;2022-08-30T02:20:46;10.50;;;5.22;;
32427;SDS011;18882;50.952;4.366;2022-08-30T02:23:11;18.42;;;5.25;;
32427;SDS011;18882;50.952;4.366;2022-08-30T02:25:37;10.90;;;5.15;;
32427;SDS011;18882;50.952;4.366;2022-08-30T02:28:04;10.43;;;4.63;;
32427;SDS011;18882;50.952;4.366;2022-08-30T02:30:29;11.55;;;4.28;;
32427;SDS011;18882;50.952;4.366;2022-08-30T02:32:55;8.75;;;4.88;;
32427;SDS011;18882;50.952;4.366;2022-08-30T02:35:21;10.60;;;4.60;;
32427;SDS011;18882;50.952;4.366;2022-08-30T02:37:47;11.15;;;5.05;;
32427;SDS011;18882;50.952;4.366;2022-08-30T02:40:13;14.02;;;5.15;;
32427;SDS011;18882;50.952;4.366;2022-08-30T02:42:39;9.43;;;5.38;;
32427;SDS011;18882;50.952;4.366;2022-08-30T02:45:06;10.45;;;4.78;;
32427;SDS011;18882;50.952;4.366;2022-08-30T02:47:32;14.95;;;5.97;;
32427;SDS011;18882;50.952;4.366;2022-08-30T02:49:58;12.63;;;5.18;;
32427;SDS011;18882;50.952;4.366;2022-08-30T02:52:23;12.00;;;4.72;;
32427;SDS011;18882;50.952;4.366;2022-08-30T02:54:49;12.20;;;5.20;;
32427;SDS011;18882;50.952;4.366;2022-08-30T02:57:15;7.45;;;5.03;;
32427;SDS011;18882;50.952;4.366;2022-08-30T02:59:40;10.75;;;5.13;;
32427;SDS011;18882;50.952;4.366;2022-08-30T03:02:09;11.93;;;4.75;;
32427;SDS011;18882;50.952;4.366;2022-08-30T03:04:36;9.50;;;5.15;;
32427;SDS011;18882;50.952;4.366;2022-08-30T03:07:03;8.50;;;5.68;;
32427;SDS011;18882;50.952;4.366;2022-08-30T03:09:32;10.93;;;5.50;;
32427;SDS011;18882;50.952;4.366;2022-08-30T03:11:59;17.27;;;4.88;;
32427;SDS011;18882;50.952;4.366;2022-08-30T03:14:24;10.90;;;5.07;;
32427;SDS011;18882;50.952;4.366;2022-08-30T03:16:50;11.75;;;5.25;;
32427;SDS011;18882;50.952;4.366;2022-08-30T03:19:16;14.48;;;5.38;;
32427;SDS011;18882;50.952;4.366;2022-08-30T03:21:42;11.02;;;5.20;;
32427;SDS011;18882;50.952;4.366;2022-08-30T03:24:08;14.18;;;5.38;;
32427;SDS011;18882;50.952;4.366;2022-08-30T03:26:34;8.90;;;5.47;;
32427;SDS011;18882;50.952;4.366;2022-08-30T03:29:00;10.18;;;5.68;;
32427;SDS011;18882;50.952;4.366;2022-08-30T03:31:26;12.88;;;5.53;;
32427;SDS011;18882;50.952;4.366;2022-08-30T03:33:51;8.52;;;5.65;;
32427;SDS011;18882;50.952;4.366;2022-08-30T03:36:17;13.80;;;5.93;;
32427;SDS011;18882;50.952;4.366;2022-08-30T03:38:44;16.02;;;5.93;;
32427;SDS011;18882;50.952;4.366;2022-08-30T03:41:09;12.80;;;5.45;;
32427;SDS011;18882;50.952;4.366;2022-08-30T03:43:35;10.88;;;5.18;;
32427;SDS011;18882;50.952;4.366;2022-08-30T03:46:01;10.52;;;5.50;;
32427;SDS011;18882;50.952;4.366;2022-08-30T03:48:28;13.27;;;5.65;;
32427;SDS011;18882;50.952;4.366;2022-08-30T03:50:54;10.77;;;5.20;;
32427;SDS011;18882;50.952;4.366;2022-08-30T03:53:20;10.82;;;5.80;;
32427;SDS011;18882;50.952;4.366;2022-08-30T03:55:46;11.18;;;5.18;;
32427;SDS011;18882;50.952;4.366;2022-08-30T03:58:11;11.82;;;5.80;;
32427;SDS011;18882;50.952;4.366;2022-08-30T04:00:37;11.98;;;5.80;;
32427;SDS011;18882;50.952;4.366;2022-08-30T04:03:03;7.90;;;5.00;;
32427;SDS011;18882;50.952;4.366;2022-08-30T04:05:29;11.27;;;5.03;;
32427;SDS011;18882;50.952;4.366;2022-08-30T04:07:54;9.93;;;5.10;;
32427;SDS011;18882;50.952;4.366;2022-08-30T04:10:20;14.98;;;5.70;;
32427;SDS011;18882;50.952;4.366;2022-08-30T04:12:46;10.27;;;5.50;;
32427;SDS011;18882;50.952;4.366;2022-08-30T04:15:13;8.23;;;5.70;;
32427;SDS011;18882;50.952;4.366;2022-08-30T04:17:40;11.57;;;6.32;;
32427;SDS011;18882;50.952;4.366;2022-08-30T04:20:05;10.90;;;6.03;;
32427;SDS011;18882;50.952;4.366;2022-08-30T04:22:32;10.88;;;5.53;;
32427;SDS011;18882;50.952;4.366;2022-08-30T04:24:58;13.48;;;6.10;;
32427;SDS011;18882;50.952;4.366;2022-08-30T04:27:23;8.65;;;5.20;;
32427;SDS011;18882;50.952;4.366;2022-08-30T04:29:49;10.57;;;5.07;;
32427;SDS011;18882;50.952;4.366;2022-08-30T04:32:15;8.48;;;5.85;;
32427;SDS011;18882;50.952;4.366;2022-08-30T04:34:41;9.65;;;6.53;;
32427;SDS011;18882;50.952;4.366;2022-08-30T04:37:07;15.05;;;6.68;;
32427;SDS011;18882;50.952;4.366;2022-08-30T04:39:33;8.43;;;5.70;;
32427;SDS011;18882;50.952;4.366;2022-08-30T04:41:59;11.98;;;5.95;;
32427;SDS011;18882;50.952;4.366;2022-08-30T04:44:27;13.75;;;6.32;;
32427;SDS011;18882;50.952;4.366;2022-08-30T04:46:52;12.38;;;6.47;;
32427;SDS011;18882;50.952;4.366;2022-08-30T04:49:18;14.43;;;6.50;;
32427;SDS011;18882;50.952;4.366;2022-08-30T04:51:44;11.25;;;5.70;;
32427;SDS011;18882;50.952;4.366;2022-08-30T04:54:10;8.50;;;6.13;;
32427;SDS011;18882;50.952;4.366;2022-08-30T04:56:36;13.35;;;6.40;;
32427;SDS011;18882;50.952;4.366;2022-08-30T04:59:02;11.50;;;6.13;;
32427;SDS011;18882;50.952;4.366;2022-08-30T05:01:31;12.18;;;6.38;;
32427;SDS011;18882;50.952;4.366;2022-08-30T05:03:57;11.20;;;6.18;;
32427;SDS011;18882;50.952;4.366;2022-08-30T05:06:24;9.73;;;5.70;;
32427;SDS011;18882;50.952;4.366;2022-08-30T05:08:52;11.25;;;5.90;;
32427;SDS011;18882;50.952;4.366;2022-08-30T05:11:18;10.68;;;6.30;;
32427;SDS011;18882;50.952;4.366;2022-08-30T05:13:45;13.63;;;6.20;;
32427;SDS011;18882;50.952;4.366;2022-08-30T05:16:11;15.95;;;6.28;;
32427;SDS011;18882;50.952;4.366;2022-08-30T05:18:42;9.73;;;5.57;;
32427;SDS011;18882;50.952;4.366;2022-08-30T05:21:13;10.30;;;6.15;;
32427;SDS011;18882;50.952;4.366;2022-08-30T05:23:49;10.15;;;6.43;;
32427;SDS011;18882;50.952;4.366;2022-08-30T05:26:22;14.93;;;6.28;;
32427;SDS011;18882;50.952;4.366;2022-08-30T05:28:49;12.00;;;6.25;;
32427;SDS011;18882;50.952;4.366;2022-08-30T05:33:43;19.45;;;6.38;;
32427;SDS011;18882;50.952;4.366;2022-08-30T05:36:09;14.52;;;6.28;;
32427;SDS011;18882;50.952;4.366;2022-08-30T05:38:35;13.77;;;5.78;;
32427;SDS011;18882;50.952;4.366;2022-08-30T05:41:01;12.23;;;6.50;;
32427;SDS011;18882;50.952;4.366;2022-08-30T05:43:27;10.52;;;6.53;;
32427;SDS011;18882;50.952;4.366;2022-08-30T05:46:06;11.82;;;6.43;;
32427;SDS011;18882;50.952;4.366;2022-08-30T05:48:34;17.48;;;7.20;;
32427;SDS011;18882;50.952;4.366;2022-08-30T05:51:10;12.10;;;6.78;;
32427;SDS011;18882;50.952;4.366;2022-08-30T05:53:38;9.50;;;6.65;;
32427;SDS011;18882;50.952;4.366;2022-08-30T05:56:06;12.30;;;6.38;;
32427;SDS011;18882;50.952;4.366;2022-08-30T05:58:34;13.15;;;6.78;;
32427;SDS011;18882;50.952;4.366;2022-08-30T06:01:01;12.27;;;6.70;;
32427;SDS011;18882;50.952;4.366;2022-08-30T06:03:28;10.52;;;7.07;;
32427;SDS011;18882;50.952;4.366;2022-08-30T06:05:56;13.73;;;7.40;;
32427;SDS011;18882;50.952;4.366;2022-08-30T06:08:22;15.55;;;7.18;;
32427;SDS011;18882;50.952;4.366;2022-08-30T06:10:48;13.95;;;7.53;;
32427;SDS011;18882;50.952;4.366;2022-08-30T06:13:13;10.75;;;7.40;;
32427;SDS011;18882;50.952;4.366;2022-08-30T06:15:39;12.57;;;6.95;;
32427;SDS011;18882;50.952;4.366;2022-08-30T06:18:08;13.13;;;7.07;;
32427;SDS011;18882;50.952;4.366;2022-08-30T06:20:38;11.57;;;6.78;;
32427;SDS011;18882;50.952;4.366;2022-08-30T06:23:08;11.98;;;7.25;;
32427;SDS011;18882;50.952;4.366;2022-08-30T06:25:35;14.55;;;7.38;;
32427;SDS011;18882;50.952;4.366;2022-08-30T06:28:02;12.80;;;7.22;;
32427;SDS011;18882;50.952;4.366;2022-08-30T06:30:28;16.52;;;8.05;;
32427;SDS011;18882;50.952;4.366;2022-08-30T06:32:54;12.45;;;6.90;;
32427;SDS011;18882;50.952;4.366;2022-08-30T06:35:19;14.75;;;7.68;;
32427;SDS011;18882;50.952;4.366;2022-08-30T06:37:45;15.73;;;7.60;;
32427;SDS011;18882;50.952;4.366;2022-08-30T06:40:11;15.02;;;6.95;;
32427;SDS011;18882;50.952;4.366;2022-08-30T06:42:40;12.65;;;7.32;;
32427;SDS011;18882;50.952;4.366;2022-08-30T06:45:08;16.63;;;6.85;;
32427;SDS011;18882;50.952;4.366;2022-08-30T06:47:34;19.90;;;7.70;;
32427;SDS011;18882;50.952;4.366;2022-08-30T06:49:59;13.02;;;7.80;;
32427;SDS011;18882;50.952;4.366;2022-08-30T06:52:25;11.93;;;7.07;;
32427;SDS011;18882;50.952;4.366;2022-08-30T06:54:52;12.20;;;7.85;;
32427;SDS011;18882;50.952;4.366;2022-08-30T06:57:19;15.38;;;7.32;;
32427;SDS011;18882;50.952;4.366;2022-08-30T06:59:45;11.65;;;7.10;;
32427;SDS011;18882;50.952;4.366;2022-08-30T07:02:11;10.02;;;7.45;;
32427;SDS011;18882;50.952;4.366;2022-08-30T07:04:37;16.33;;;7.22;;
32427;SDS011;18882;50.952;4.366;2022-08-30T07:07:03;19.40;;;8.32;;
32427;SDS011;18882;50.952;4.366;2022-08-30T07:09:29;17.45;;;7.65;;
32427;SDS011;18882;50.952;4.366;2022-08-30T07:11:54;12.27;;;7.32;;
32427;SDS011;18882;50.952;4.366;2022-08-30T07:14:20;14.35;;;6.75;;
32427;SDS011;18882;50.952;4.366;2022-08-30T07:16:46;17.95;;;7.30;;
32427;SDS011;18882;50.952;4.366;2022-08-30T07:19:12;12.00;;;7.15;;
32427;SDS011;18882;50.952;4.366;2022-08-30T07:21:39;13.90;;;6.93;;
32427;SDS011;18882;50.952;4.366;2022-08-30T07:24:09;11.95;;;7.38;;
32427;SDS011;18882;50.952;4.366;2022-08-30T07:26:38;10.50;;;7.30;;
32427;SDS011;18882;50.952;4.366;2022-08-30T07:29:05;17.17;;;7.22;;
32427;SDS011;18882;50.952;4.366;2022-08-30T07:31:32;10.80;;;6.95;;
32427;SDS011;18882;50.952;4.366;2022-08-30T07:34:00;13.57;;;6.88;;
32427;SDS011;18882;50.952;4.366;2022-08-30T07:36:27;12.38;;;6.97;;
32427;SDS011;18882;50.952;4.366;2022-08-30T07:38:53;13.55;;;7.03;;
32427;SDS011;18882;50.952;4.366;2022-08-30T07:41:20;12.80;;;6.65;;
32427;SDS011;18882;50.952;4.366;2022-08-30T07:43:58;12.82;;;7.32;;
32427;SDS011;18882;50.952;4.366;2022-08-30T07:46:25;10.23;;;7.03;;
32427;SDS011;18882;50.952;4.366;2022-08-30T07:48:52;13.00;;;6.40;;
32427;SDS011;18882;50.952;4.366;2022-08-30T07:51:22;10.60;;;6.88;;
32427;SDS011;18882;50.952;4.366;2022-08-30T07:53:49;10.63;;;6.93;;
32427;SDS011;18882;50.952;4.366;2022-08-30T07:56:16;11.13;;;7.35;;
32427;SDS011;18882;50.952;4.366;2022-08-30T07:58:42;21.30;;;7.53;;
32427;SDS011;18882;50.952;4.366;2022-08-30T08:01:08;12.57;;;6.80;;
32427;SDS011;18882;50.952;4.366;2022-08-30T08:03:35;10.05;;;7.15;;
32427;SDS011;18882;50.952;4.366;2022-08-30T08:06:04;11.88;;;6.75;;
32427;SDS011;18882;50.952;4.366;2022-08-30T08:08:30;10.50;;;6.65;;
32427;SDS011;18882;50.952;4.366;2022-08-30T08:11:04;10.80;;;6.35;;
32427;SDS011;18882;50.952;4.366;2022-08-30T08:13:32;8.73;;;6.35;;
32427;SDS011;18882;50.952;4.366;2022-08-30T08:15:58;15.63;;;7.25;;
32427;SDS011;18882;50.952;4.366;2022-08-30T08:18:24;11.30;;;7.32;;
32427;SDS011;18882;50.952;4.366;2022-08-30T08:20:49;12.70;;;7.13;;
32427;SDS011;18882;50.952;4.366;2022-08-30T08:23:17;7.30;;;6.05;;
32427;SDS011;18882;50.952;4.366;2022-08-30T08:25:42;11.18;;;6.88;;
32427;SDS011;18882;50.952;4.366;2022-08-30T08:28:08;11.93;;;6.93;;
32427;SDS011;18882;50.952;4.366;2022-08-30T08:30:35;11.52;;;6.65;;
32427;SDS011;18882;50.952;4.366;2022-08-30T08:33:02;11.65;;;6.72;;
32427;SDS011;18882;50.952;4.366;2022-08-30T08:35:29;10.35;;;7.28;;
32427;SDS011;18882;50.952;4.366;2022-08-30T08:37:55;9.63;;;6.47;;
32427;SDS011;18882;50.952;4.366;2022-08-30T08:40:21;12.80;;;6.85;;
32427;SDS011;18882;50.952;4.366;2022-08-30T08:42:54;9.82;;;6.47;;
32427;SDS011;18882;50.952;4.366;2022-08-30T08:46:09;11.10;;;6.50;;
32427;SDS011;18882;50.952;4.366;2022-08-30T08:48:33;18.83;;;6.05;;
32427;SDS011;18882;50.952;4.366;2022-08-30T08:51:04;8.73;;;5.45;;
32427;SDS011;18882;50.952;4.366;2022-08-30T08:53:59;7.88;;;5.07;;
32427;SDS011;18882;50.952;4.366;2022-08-30T08:56:37;9.75;;;5.45;;
32427;SDS011;18882;50.952;4.366;2022-08-30T08:59:03;10.20;;;5.53;;
32427;SDS011;18882;50.952;4.366;2022-08-30T09:01:32;10.57;;;5.32;;
32427;SDS011;18882;50.952;4.366;2022-08-30T09:03:58;9.02;;;4.70;;
32427;SDS011;18882;50.952;4.366;2022-08-30T09:09:10;12.57;;;5.72;;
32427;SDS011;18882;50.952;4.366;2022-08-30T09:11:36;12.02;;;6.00;;
32427;SDS011;18882;50.952;4.366;2022-08-30T09:14:05;8.10;;;4.60;;
32427;SDS011;18882;50.952;4.366;2022-08-30T09:22:30;6.70;;;3.97;;
32427;SDS011;18882;50.952;4.366;2022-08-30T09:30:03;6.32;;;3.85;;
32427;SDS011;18882;50.952;4.366;2022-08-30T09:40:42;8.67;;;3.43;;
32427;SDS011;18882;50.952;4.366;2022-08-30T09:48:29;4.47;;;2.92;;
32427;SDS011;18882;50.952;4.366;2022-08-30T09:59:42;13.68;;;3.25;;
32427;SDS011;18882;50.952;4.366;2022-08-30T10:05:21;6.72;;;2.83;;
32427;SDS011;18882;50.952;4.366;2022-08-30T10:10:50;6.50;;;3.00;;
32427;SDS011;18882;50.952;4.366;2022-08-30T10:18:47;3.97;;;2.75;;
32427;SDS011;18882;50.952;4.366;2022-08-30T10:24:07;4.70;;;2.45;;
32427;SDS011;18882;50.952;4.366;2022-08-30T10:26:56;7.65;;;3.17;;
32427;SDS011;18882;50.952;4.366;2022-08-30T10:29:52;5.03;;;2.25;;
32427;SDS011;18882;50.952;4.366;2022-08-30T10:32:23;4.93;;;2.40;;
32427;SDS011;18882;50.952;4.366;2022-08-30T10:37:45;4.72;;;2.65;;
32427;SDS011;18882;50.952;4.366;2022-08-30T10:40:26;4.63;;;2.58;;
32427;SDS011;18882;50.952;4.366;2022-08-30T10:43:18;8.38;;;2.50;;
32427;SDS011;18882;50.952;4.366;2022-08-30T10:45:58;7.00;;;2.90;;
32427;SDS011;18882;50.952;4.366;2022-08-30T10:48:37;4.63;;;2.78;;
32427;SDS011;18882;50.952;4.366;2022-08-30T10:51:09;6.78;;;2.60;;
32427;SDS011;18882;50.952;4.366;2022-08-30T10:53:45;4.45;;;2.40;;
32427;SDS011;18882;50.952;4.366;2022-08-30T10:56:16;4.20;;;2.70;;
32427;SDS011;18882;50.952;4.366;2022-08-30T10:58:46;8.68;;;2.85;;
32427;SDS011;18882;50.952;4.366;2022-08-30T11:01:25;7.38;;;3.20;;
32427;SDS011;18882;50.952;4.366;2022-08-30T11:07:01;4.78;;;2.38;;
32427;SDS011;18882;50.952;4.366;2022-08-30T11:12:10;4.05;;;2.20;;
32427;SDS011;18882;50.952;4.366;2022-08-30T11:15:00;7.00;;;2.40;;
32427;SDS011;18882;50.952;4.366;2022-08-30T11:17:45;10.90;;;2.83;;
32427;SDS011;18882;50.952;4.366;2022-08-30T11:20:22;3.80;;;2.00;;
32427;SDS011;18882;50.952;4.366;2022-08-30T11:33:52;2.78;;;2.42;;
32427;SDS011;18882;50.952;4.366;2022-08-30T11:38:57;3.95;;;2.83;;
32427;SDS011;18882;50.952;4.366;2022-08-30T11:41:38;5.03;;;2.90;;
32427;SDS011;18882;50.952;4.366;2022-08-30T11:44:12;4.93;;;2.10;;
32427;SDS011;18882;50.952;4.366;2022-08-30T11:46:45;3.88;;;2.53;;
32427;SDS011;18882;50.952;4.366;2022-08-30T11:54:24;4.47;;;2.42;;
32427;SDS011;18882;50.952;4.366;2022-08-30T11:56:55;3.78;;;2.70;;
32427;SDS011;18882;50.952;4.366;2022-08-30T11:59:46;3.30;;;2.00;;
32427;SDS011;18882;50.952;4.366;2022-08-30T12:05:02;8.75;;;2.75;;
32427;SDS011;18882;50.952;4.366;2022-08-30T12:10:22;4.53;;;2.47;;
32427;SDS011;18882;50.952;4.366;2022-08-30T12:13:00;6.38;;;2.38;;
32427;SDS011;18882;50.952;4.366;2022-08-30T12:15:28;4.07;;;1.90;;
32427;SDS011;18882;50.952;4.366;2022-08-30T12:18:30;6.40;;;2.47;;
32427;SDS011;18882;50.952;4.366;2022-08-30T12:24:25;9.73;;;2.88;;
32427;SDS011;18882;50.952;4.366;2022-08-30T12:26:34;7.68;;;2.58;;
32427;SDS011;18882;50.952;4.366;2022-08-30T12:29:12;3.33;;;2.63;;
32427;SDS011;18882;50.952;4.366;2022-08-30T12:31:46;8.95;;;2.72;;
32427;SDS011;18882;50.952;4.366;2022-08-30T12:39:35;4.88;;;2.40;;
32427;SDS011;18882;50.952;4.366;2022-08-30T12:42:09;4.32;;;2.75;;
32427;SDS011;18882;50.952;4.366;2022-08-30T12:47:16;8.02;;;1.95;;
32427;SDS011;18882;50.952;4.366;2022-08-30T12:49:46;11.00;;;2.72;;
32427;SDS011;18882;50.952;4.366;2022-08-30T12:52:22;3.20;;;2.22;;
32427;SDS011;18882;50.952;4.366;2022-08-30T12:55:17;5.07;;;2.13;;
32427;SDS011;18882;50.952;4.366;2022-08-30T13:00:27;2.35;;;1.90;;
32427;SDS011;18882;50.952;4.366;2022-08-30T13:03:04;4.15;;;2.60;;
32427;SDS011;18882;50.952;4.366;2022-08-30T13:05:49;8.27;;;2.28;;
32427;SDS011;18882;50.952;4.366;2022-08-30T13:08:23;4.43;;;1.88;;
32427;SDS011;18882;50.952;4.366;2022-08-30T13:11:07;2.53;;;1.73;;
32427;SDS011;18882;50.952;4.366;2022-08-30T13:16:11;6.78;;;1.80;;
32427;SDS011;18882;50.952;4.366;2022-08-30T13:18:47;2.60;;;1.73;;
32427;SDS011;18882;50.952;4.366;2022-08-30T13:24:02;3.75;;;1.67;;
32427;SDS011;18882;50.952;4.366;2022-08-30T13:26:30;5.50;;;2.20;;
32427;SDS011;18882;50.952;4.366;2022-08-30T13:28:59;9.93;;;2.53;;
32427;SDS011;18882;50.952;4.366;2022-08-30T13:31:27;14.23;;;2.75;;
32427;SDS011;18882;50.952;4.366;2022-08-30T13:33:54;6.72;;;2.40;;
32427;SDS011;18882;50.952;4.366;2022-08-30T13:36:20;9.32;;;2.20;;
32427;SDS011;18882;50.952;4.366;2022-08-30T13:38:49;10.18;;;1.92;;
32427;SDS011;18882;50.952;4.366;2022-08-30T13:41:16;6.72;;;1.98;;
32427;SDS011;18882;50.952;4.366;2022-08-30T13:43:42;3.97;;;1.95;;
32427;SDS011;18882;50.952;4.366;2022-08-30T13:46:08;2.15;;;1.52;;
32427;SDS011;18882;50.952;4.366;2022-08-30T13:48:36;2.53;;;1.85;;
32427;SDS011;18882;50.952;4.366;2022-08-30T13:51:02;3.60;;;1.40;;
32427;SDS011;18882;50.952;4.366;2022-08-30T13:53:28;7.30;;;1.75;;
32427;SDS011;18882;50.952;4.366;2022-08-30T13:55:53;2.05;;;1.52;;
32427;SDS011;18882;50.952;4.366;2022-08-30T13:58:19;7.32;;;1.80;;
32427;SDS011;18882;50.952;4.366;2022-08-30T14:00:45;7.65;;;2.10;;
32427;SDS011;18882;50.952;4.366;2022-08-30T14:03:11;4.43;;;2.08;;
32427;SDS011;18882;50.952;4.366;2022-08-30T14:05:38;4.78;;;1.42;;
32427;SDS011;18882;50.952;4.366;2022-08-30T14:08:05;5.03;;;2.38;;
32427;SDS011;18882;50.952;4.366;2022-08-30T14:10:33;3.90;;;1.92;;
32427;SDS011;18882;50.952;4.366;2022-08-30T14:12:59;7.88;;;2.13;;
32427;SDS011;18882;50.952;4.366;2022-08-30T14:15:25;4.50;;;1.70;;
32427;SDS011;18882;50.952;4.366;2022-08-30T14:17:50;5.93;;;1.90;;
32427;SDS011;18882;50.952;4.366;2022-08-30T14:20:17;5.43;;;1.85;;
32427;SDS011;18882;50.952;4.366;2022-08-30T14:22:43;4.05;;;1.33;;
32427;SDS011;18882;50.952;4.366;2022-08-30T14:25:09;3.13;;;1.80;;
32427;SDS011;18882;50.952;4.366;2022-08-30T14:27:35;2.38;;;1.60;;
32427;SDS011;18882;50.952;4.366;2022-08-30T14:30:01;4.68;;;1.42;;
32427;SDS011;18882;50.952;4.366;2022-08-30T14:32:28;2.33;;;1.45;;
32427;SDS011;18882;50.952;4.366;2022-08-30T14:34:54;1.88;;;1.73;;
32427;SDS011;18882;50.952;4.366;2022-08-30T14:37:19;2.53;;;1.40;;
32427;SDS011;18882;50.952;4.366;2022-08-30T14:39:45;3.25;;;1.75;;
32427;SDS011;18882;50.952;4.366;2022-08-30T14:42:12;2.00;;;1.30;;
32427;SDS011;18882;50.952;4.366;2022-08-30T14:44:37;2.58;;;1.70;;
32427;SDS011;18882;50.952;4.366;2022-08-30T14:47:03;2.25;;;1.38;;
32427;SDS011;18882;50.952;4.366;2022-08-30T14:49:29;1.40;;;1.30;;
32427;SDS011;18882;50.952;4.366;2022-08-30T14:51:55;3.72;;;1.58;;
32427;SDS011;18882;50.952;4.366;2022-08-30T14:54:22;2.25;;;1.40;;
32427;SDS011;18882;50.952;4.366;2022-08-30T14:56:50;2.25;;;1.20;;
32427;SDS011;18882;50.952;4.366;2022-08-30T14:59:16;7.88;;;1.70;;
32427;SDS011;18882;50.952;4.366;2022-08-30T15:01:42;8.93;;;1.33;;
32427;SDS011;18882;50.952;4.366;2022-08-30T15:04:08;6.68;;;1.50;;
32427;SDS011;18882;50.952;4.366;2022-08-30T15:06:35;2.90;;;1.50;;
32427;SDS011;18882;50.952;4.366;2022-08-30T15:09:03;3.53;;;1.38;;
32427;SDS011;18882;50.952;4.366;2022-08-30T15:11:30;2.15;;;1.40;;
32427;SDS011;18882;50.952;4.366;2022-08-30T15:13:56;1.42;;;1.17;;
32427;SDS011;18882;50.952;4.366;2022-08-30T15:16:23;9.30;;;1.60;;
32427;SDS011;18882;50.952;4.366;2022-08-30T15:18:54;1.95;;;1.10;;
32427;SDS011;18882;50.952;4.366;2022-08-30T15:21:25;1.63;;;1.27;;
32427;SDS011;18882;50.952;4.366;2022-08-30T15:23:52;4.97;;;1.45;;
32427;SDS011;18882;50.952;4.366;2022-08-30T15:26:19;1.52;;;1.08;;
32427;SDS011;18882;50.952;4.366;2022-08-30T15:28:45;2.55;;;1.40;;
32427;SDS011;18882;50.952;4.366;2022-08-30T15:31:11;2.00;;;1.38;;
32427;SDS011;18882;50.952;4.366;2022-08-30T15:33:37;1.50;;;1.05;;
32427;SDS011;18882;50.952;4.366;2022-08-30T15:36:04;3.85;;;1.50;;
32427;SDS011;18882;50.952;4.366;2022-08-30T15:38:31;9.45;;;1.45;;
32427;SDS011;18882;50.952;4.366;2022-08-30T15:41:01;6.28;;;1.67;;
32427;SDS011;18882;50.952;4.366;2022-08-30T15:43:30;3.30;;;1.20;;
32427;SDS011;18882;50.952;4.366;2022-08-30T15:45:56;2.08;;;1.10;;
32427;SDS011;18882;50.952;4.366;2022-08-30T15:48:37;3.15;;;1.27;;
32427;SDS011;18882;50.952;4.366;2022-08-30T15:51:02;4.95;;;1.60;;
32427;SDS011;18882;50.952;4.366;2022-08-30T15:53:31;6.68;;;1.30;;
32427;SDS011;18882;50.952;4.366;2022-08-30T15:55:57;6.53;;;0.98;;
32427;SDS011;18882;50.952;4.366;2022-08-30T15:58:23;1.15;;;1.00;;
32427;SDS011;18882;50.952;4.366;2022-08-30T16:00:49;1.48;;;1.30;;
32427;SDS011;18882;50.952;4.366;2022-08-30T16:03:15;2.42;;;1.33;;
32427;SDS011;18882;50.952;4.366;2022-08-30T16:05:40;3.30;;;1.63;;
32427;SDS011;18882;50.952;4.366;2022-08-30T16:08:06;6.65;;;1.48;;
32427;SDS011;18882;50.952;4.366;2022-08-30T16:10:36;2.75;;;1.42;;
32427;SDS011;18882;50.952;4.366;2022-08-30T16:13:03;2.28;;;1.17;;
32427;SDS011;18882;50.952;4.366;2022-08-30T16:15:29;2.83;;;1.30;;
32427;SDS011;18882;50.952;4.366;2022-08-30T16:17:55;2.03;;;1.27;;
32427;SDS011;18882;50.952;4.366;2022-08-30T16:20:20;3.22;;;1.15;;
32427;SDS011;18882;50.952;4.366;2022-08-30T16:22:46;3.55;;;1.58;;
32427;SDS011;18882;50.952;4.366;2022-08-30T16:25:12;6.88;;;1.63;;
32427;SDS011;18882;50.952;4.366;2022-08-30T16:27:38;2.10;;;1.20;;
32427;SDS011;18882;50.952;4.366;2022-08-30T16:30:07;3.33;;;1.40;;
32427;SDS011;18882;50.952;4.366;2022-08-30T16:32:37;2.47;;;1.60;;